Tilton, NH (03276)

12:16 AM EST on December 08, 2016 (GMT -0500)
| | Change Station

Elev -9999 ft 0.00 °N, 0.00 °E | Updated 1 minute ago

Snow
Snow
°F
Feels Like °F
N
Wind Variable Wind from North
Gusts mph

Today
High -- | Low -- °F
--% Chance of Precip.
Yesterday
High -- | Low -- °F
Precip. -- in
Pressure 30.00 in
Visibility 6.0 miles
Clouds Mostly Cloudy 10000 ft
Overcast 12000 ft
Dew Point Not available.
Humidity Not available.
Rainfall --
Snow Depth Not available.
7:06 AM 4:10 PM
First Quarter, 59% visible
METAR KLCI 080456Z AUTO 26003KT 6SM BR BKN100 OVC120 M01/M01 A2993 RMK AO2 SLP157 T10061006 FZRANO
Pressure 30.00 in
Visibility 6.0 miles
Clouds Mostly Cloudy 10000 ft
Overcast 12000 ft
Dew Point Not available.
Humidity Not available.
Rainfall --
Snow Depth Not available.
7:06 AM 4:10 PM
First Quarter, 59% visible
METAR KLCI 080456Z AUTO 26003KT 6SM BR BKN100 OVC120 M01/M01 A2993 RMK AO2 SLP157 T10061006 FZRANO

10-Day Weather Forecast

Almanac

Astronomy

Dec. 08, 2016 Rise Set
Actual Time
Civil Twilight
Nautical Twilight
Astronomical Twilight
Moon
Length of Visible Light
Length of Day
Tomorrow will be .
, % of the Moon is Illuminated

Today's Extremes

State Highs State Lows

Community

WunderPhotos

Upload Photos

1,956,259 photos uploaded!

WunderBlog® & News

Nearby

Air Quality

  Air Quality AQ Index Pollutant
Not available.

Snow Depth

Station Depth Elevation

Earthquake Activity

City Distance Mag. Time & Date
Minimum magnitude displayed is 2.5.

Coastal Water Temperatures

Place Temperature

Stations

Nearby Weather Stations

Station Location Temp. Windchill Dew Point Humidity Wind Precip. Elev Updated Type
                   

Watches & Warnings

There are currently no watches in effect.